<?xml version="1.0" encoding="UTF-8" standalone="no" ?><gpx xmlns="http://www.topografix.com/GPX/1/1" xmlns:gpxx="http://www.garmin.com/xmlschemas/GpxExtensions/v3" xmlns:wptx1="http://www.garmin.com/xmlschemas/WaypointExtension/v1" xmlns:gpxtpx="http://www.garmin.com/xmlschemas/TrackPointExtension/v1" creator="GuideVTT.com" version="1.1" xmlns:xsi="http://www.w3.org/2001/XMLSchema-instance" xsi:schemaLocation="http://www.topografix.com/GPX/1/1 http://www.topografix.com/GPX/1/1/gpx.xsd http://www.garmin.com/xmlschemas/GpxExtensions/v3 http://www8.garmin.com/xmlschemas/GpxExtensionsv3.xsd http://www.garmin.com/xmlschemas/WaypointExtension/v1 http://www8.garmin.com/xmlschemas/WaypointExtensionv1.xsd http://www.garmin.com/xmlschemas/TrackPointExtension/v1 http://www.garmin.com/xmlschemas/TrackPointExtensionv1.xsd">
<metadata><link href="http://www.garmin.com"><text>Garmin International</text></link><time>2013-06-22T15:13:50Z</time></metadata>
<trk><name>chavornay2.gpx</name><extensions><gpxx:TrackExtension><gpxx:DisplayColor>Cyan</gpxx:DisplayColor></gpxx:TrackExtension></extensions><trkseg>
<trkpt lat="46.54447949" lon="6.51346229"><ele>444.266479512</ele><time>2008-01-05T11:41:35Z</time></trkpt>
<trkpt lat="46.54484360" lon="6.51447784"><ele>441.8631592488</ele><time>2008-01-05T11:42:34Z</time></trkpt>
<trkpt lat="46.54573392" lon="6.51484740"><ele>437.5371093792</ele><time>2008-01-05T11:42:48Z</time></trkpt>
<trkpt lat="46.54664269" lon="6.51493834"><ele>437.5371093792</ele><time>2008-01-05T11:43:01Z</time></trkpt>
<trkpt lat="46.54752974" lon="6.51465537"><ele>438.0178222608</ele><time>2008-01-05T11:43:14Z</time></trkpt>
<trkpt lat="46.54849165" lon="6.51441112"><ele>434.6533203792</ele><time>2008-01-05T11:43:29Z</time></trkpt>
<trkpt lat="46.54939522" lon="6.51385515"><ele>432.7307129976</ele><time>2008-01-05T11:43:42Z</time></trkpt>
<trkpt lat="46.55021262" lon="6.51320480"><ele>427.4433592848</ele><time>2008-01-05T11:43:53Z</time></trkpt>
<trkpt lat="46.55101737" lon="6.51247348"><ele>424.0787354832</ele><time>2008-01-05T11:44:03Z</time></trkpt>
<trkpt lat="46.55168138" lon="6.51162867"><ele>425.5207519032</ele><time>2008-01-05T11:44:14Z</time></trkpt>
<trkpt lat="46.55258118" lon="6.51124712"><ele>427.4433592848</ele><time>2008-01-05T11:44:28Z</time></trkpt>
<trkpt lat="46.55345868" lon="6.51086164"><ele>432.250000116</ele><time>2008-01-05T11:44:44Z</time></trkpt>
<trkpt lat="46.55419118" lon="6.51010450"><ele>433.691894616</ele><time>2008-01-05T11:45:01Z</time></trkpt>
<trkpt lat="46.55504957" lon="6.51023274"><ele>438.0178222608</ele><time>2008-01-05T11:45:21Z</time></trkpt>
<trkpt lat="46.55572632" lon="6.51111846"><ele>444.266479512</ele><time>2008-01-05T11:45:42Z</time></trkpt>
<trkpt lat="46.55644013" lon="6.51200359"><ele>446.6696778552</ele><time>2008-01-05T11:46:04Z</time></trkpt>
<trkpt lat="46.55727622" lon="6.51262896"><ele>448.1118165</ele><time>2008-01-05T11:46:22Z</time></trkpt>
<trkpt lat="46.55816127" lon="6.51285569"><ele>449.553711</ele><time>2008-01-05T11:46:38Z</time></trkpt>
<trkpt lat="46.55907716" lon="6.51282929"><ele>450.9956055</ele><time>2008-01-05T11:46:54Z</time></trkpt>
<trkpt lat="46.56002632" lon="6.51279350"><ele>450.5150145384</ele><time>2008-01-05T11:47:11Z</time></trkpt>
<trkpt lat="46.56092847" lon="6.51277942"><ele>450.9956055</ele><time>2008-01-05T11:47:27Z</time></trkpt>
<trkpt lat="46.56185458" lon="6.51274245"><ele>451.4763183816</ele><time>2008-01-05T11:47:43Z</time></trkpt>
<trkpt lat="46.56278539" lon="6.51280029"><ele>450.5150145384</ele><time>2008-01-05T11:47:59Z</time></trkpt>
<trkpt lat="46.56370388" lon="6.51292576"><ele>451.4763183816</ele><time>2008-01-05T11:48:15Z</time></trkpt>
<trkpt lat="46.56463603" lon="6.51297136"><ele>450.9956055</ele><time>2008-01-05T11:48:31Z</time></trkpt>
<trkpt lat="46.56556802" lon="6.51298075"><ele>450.5150145384</ele><time>2008-01-05T11:48:46Z</time></trkpt>
<trkpt lat="46.56652766" lon="6.51300162"><ele>450.5150145384</ele><time>2008-01-05T11:49:01Z</time></trkpt>
<trkpt lat="46.56742612" lon="6.51299978"><ele>450.0344238816</ele><time>2008-01-05T11:49:15Z</time></trkpt>
<trkpt lat="46.56834595" lon="6.51300699"><ele>447.6309813936</ele><time>2008-01-05T11:49:28Z</time></trkpt>
<trkpt lat="46.56930626" lon="6.51294219"><ele>444.7470701688</ele><time>2008-01-05T11:49:39Z</time></trkpt>
<trkpt lat="46.57015326" lon="6.51248664"><ele>438.979126104</ele><time>2008-01-05T11:49:48Z</time></trkpt>
<trkpt lat="46.57082289" lon="6.51161785"><ele>436.5759277608</ele><time>2008-01-05T11:49:57Z</time></trkpt>
<trkpt lat="46.57163803" lon="6.51095912"><ele>438.979126104</ele><time>2008-01-05T11:50:08Z</time></trkpt>
<trkpt lat="46.57254302" lon="6.51077170"><ele>440.9018554056</ele><time>2008-01-05T11:50:21Z</time></trkpt>
<trkpt lat="46.57346142" lon="6.51065796"><ele>442.3438721304</ele><time>2008-01-05T11:50:35Z</time></trkpt>
<trkpt lat="46.57436298" lon="6.51043684"><ele>443.7857666304</ele><time>2008-01-05T11:50:49Z</time></trkpt>
<trkpt lat="46.57525364" lon="6.51011825"><ele>442.8244627872</ele><time>2008-01-05T11:51:03Z</time></trkpt>
<trkpt lat="46.57617548" lon="6.50976864"><ele>442.3438721304</ele><time>2008-01-05T11:51:17Z</time></trkpt>
<trkpt lat="46.57707386" lon="6.50921174"><ele>439.4597167608</ele><time>2008-01-05T11:51:31Z</time></trkpt>
<trkpt lat="46.57796645" lon="6.50916883"><ele>446.6696778552</ele><time>2008-01-05T11:51:52Z</time></trkpt>
<trkpt lat="46.57886893" lon="6.50904662"><ele>454.3602296064</ele><time>2008-01-05T11:52:20Z</time></trkpt>
<trkpt lat="46.57976705" lon="6.50879290"><ele>460.6087646328</ele><time>2008-01-05T11:52:48Z</time></trkpt>
<trkpt lat="46.58057783" lon="6.50823366"><ele>466.857421884</ele><time>2008-01-05T11:53:17Z</time></trkpt>
<trkpt lat="46.58124268" lon="6.50732850"><ele>474.5479736352</ele><time>2008-01-05T11:53:49Z</time></trkpt>
<trkpt lat="46.58210987" lon="6.50755146"><ele>482.2385253864</ele><time>2008-01-05T11:54:27Z</time></trkpt>
<trkpt lat="46.58285670" lon="6.50830993"><ele>489.9290771376</ele><time>2008-01-05T11:55:00Z</time></trkpt>
<trkpt lat="46.58360319" lon="6.50907906"><ele>493.2935790192</ele><time>2008-01-05T11:55:30Z</time></trkpt>
<trkpt lat="46.58441582" lon="6.50959538"><ele>494.735595744</ele><time>2008-01-05T11:55:56Z</time></trkpt>
<trkpt lat="46.58533355" lon="6.50985036"><ele>498.580932732</ele><time>2008-01-05T11:56:21Z</time></trkpt>
<trkpt lat="46.58624098" lon="6.51010484"><ele>501.464843652</ele><time>2008-01-05T11:56:43Z</time></trkpt>
<trkpt lat="46.58711848" lon="6.51013618"><ele>501.9455565336</ele><time>2008-01-05T11:57:28Z</time></trkpt>
<trkpt lat="46.58806429" lon="6.51039694"><ele>503.8681639152</ele><time>2008-01-05T11:57:47Z</time></trkpt>
<trkpt lat="46.58899284" lon="6.51063868"><ele>506.75207514</ele><time>2008-01-05T11:58:06Z</time></trkpt>
<trkpt lat="46.58988878" lon="6.51088343"><ele>510.1166992464</ele><time>2008-01-05T11:58:25Z</time></trkpt>
<trkpt lat="46.59078598" lon="6.51113246"><ele>513.9620362344</ele><time>2008-01-05T11:58:44Z</time></trkpt>
<trkpt lat="46.59170355" lon="6.51139204"><ele>517.326660036</ele><time>2008-01-05T11:59:03Z</time></trkpt>
<trkpt lat="46.59258557" lon="6.51164258"><ele>519.2492677224</ele><time>2008-01-05T11:59:21Z</time></trkpt>
<trkpt lat="46.59348018" lon="6.51177820"><ele>520.6912841424</ele><time>2008-01-05T11:59:39Z</time></trkpt>
<trkpt lat="46.59438056" lon="6.51154786"><ele>518.2878416544</ele><time>2008-01-05T11:59:54Z</time></trkpt>
<trkpt lat="46.59529595" lon="6.51132708"><ele>520.6912841424</ele><time>2008-01-05T12:00:10Z</time></trkpt>
<trkpt lat="46.59620966" lon="6.51111578"><ele>529.8237303936</ele><time>2008-01-05T12:00:35Z</time></trkpt>
<trkpt lat="46.59713033" lon="6.51084697"><ele>531.7463377752</ele><time>2008-01-05T12:00:59Z</time></trkpt>
<trkpt lat="46.59805426" lon="6.51076055"><ele>535.5915528432</ele><time>2008-01-05T12:01:22Z</time></trkpt>
<trkpt lat="46.59894367" lon="6.51055478"><ele>540.8789062512</ele><time>2008-01-05T12:01:44Z</time></trkpt>
<trkpt lat="46.59980214" lon="6.51008572"><ele>542.8015136328</ele><time>2008-01-05T12:02:07Z</time></trkpt>
<trkpt lat="46.60071183" lon="6.51018823"><ele>545.204833896</ele><time>2008-01-05T12:02:29Z</time></trkpt>
<trkpt lat="46.60163074" lon="6.51027566"><ele>543.762817476</ele><time>2008-01-05T12:02:48Z</time></trkpt>
<trkpt lat="46.60227162" lon="6.50935524"><ele>545.6855467776</ele><time>2008-01-05T12:03:06Z</time></trkpt>
<trkpt lat="46.60277663" lon="6.50820742"><ele>548.0888670408</ele><time>2008-01-05T12:03:24Z</time></trkpt>
<trkpt lat="46.60360593" lon="6.50758356"><ele>550.4921876088</ele><time>2008-01-05T12:03:43Z</time></trkpt>
<trkpt lat="46.60453079" lon="6.50735079"><ele>555.779296872</ele><time>2008-01-05T12:04:05Z</time></trkpt>
<trkpt lat="46.60545398" lon="6.50738776"><ele>560.1052245168</ele><time>2008-01-05T12:04:27Z</time></trkpt>
<trkpt lat="46.60636442" lon="6.50766009"><ele>565.3925782296</ele><time>2008-01-05T12:04:49Z</time></trkpt>
<trkpt lat="46.60728836" lon="6.50780224"><ele>567.795654348</ele><time>2008-01-05T12:05:11Z</time></trkpt>
<trkpt lat="46.60818505" lon="6.50789939"><ele>572.6025390192</ele><time>2008-01-05T12:05:37Z</time></trkpt>
<trkpt lat="46.60908577" lon="6.50780275"><ele>573.0832519008</ele><time>2008-01-05T12:05:58Z</time></trkpt>
<trkpt lat="46.61001792" lon="6.50786108"><ele>571.6408691112</ele><time>2008-01-05T12:06:17Z</time></trkpt>
<trkpt lat="46.61093725" lon="6.50806719"><ele>571.1604003744</ele><time>2008-01-05T12:06:34Z</time></trkpt>
<trkpt lat="46.61187108" lon="6.50828814"><ele>570.6796874928</ele><time>2008-01-05T12:06:54Z</time></trkpt>
<trkpt lat="46.61277322" lon="6.50846684"><ele>567.3151856112</ele><time>2008-01-05T12:07:09Z</time></trkpt>
<trkpt lat="46.61366145" lon="6.50839929"><ele>563.9504395848</ele><time>2008-01-05T12:07:24Z</time></trkpt>
<trkpt lat="46.61408499" lon="6.50723269"><ele>562.0280760432</ele><time>2008-01-05T12:07:47Z</time></trkpt>
<trkpt lat="46.61508990" lon="6.50730595"><ele>557.7021483984</ele><time>2008-01-05T12:08:04Z</time></trkpt>
<trkpt lat="46.61606924" lon="6.50745180"><ele>555.2985839904</ele><time>2008-01-05T12:08:15Z</time></trkpt>
<trkpt lat="46.61695763" lon="6.50773100"><ele>559.1440428984</ele><time>2008-01-05T12:08:29Z</time></trkpt>
<trkpt lat="46.61782223" lon="6.50831245"><ele>564.4311524664</ele><time>2008-01-05T12:08:53Z</time></trkpt>
<trkpt lat="46.61874516" lon="6.50853842"><ele>565.3925782296</ele><time>2008-01-05T12:09:15Z</time></trkpt>
<trkpt lat="46.61967027" lon="6.50862057"><ele>566.8344727296</ele><time>2008-01-05T12:09:34Z</time></trkpt>
<trkpt lat="46.62058004" lon="6.50879424"><ele>568.2763672296</ele><time>2008-01-05T12:09:52Z</time></trkpt>
<trkpt lat="46.62148638" lon="6.50912357"><ele>573.0832519008</ele><time>2008-01-05T12:10:11Z</time></trkpt>
<trkpt lat="46.62236555" lon="6.50951718"><ele>576.928466664</ele><time>2008-01-05T12:10:30Z</time></trkpt>
<trkpt lat="46.62324348" lon="6.50982396"><ele>576.928466664</ele><time>2008-01-05T12:10:48Z</time></trkpt>
<trkpt lat="46.62412542" lon="6.51011347"><ele>575.9670409008</ele><time>2008-01-05T12:11:04Z</time></trkpt>
<trkpt lat="46.62500862" lon="6.51040139"><ele>575.4863280192</ele><time>2008-01-05T12:11:19Z</time></trkpt>
<trkpt lat="46.62593105" lon="6.51070406"><ele>574.5251464008</ele><time>2008-01-05T12:11:34Z</time></trkpt>
<trkpt lat="46.62681232" lon="6.51100136"><ele>575.0058592824</ele><time>2008-01-05T12:11:49Z</time></trkpt>
<trkpt lat="46.62775143" lon="6.51130940"><ele>574.5251464008</ele><time>2008-01-05T12:12:04Z</time></trkpt>
<trkpt lat="46.62865927" lon="6.51161299"><ele>572.6025390192</ele><time>2008-01-05T12:12:17Z</time></trkpt>
<trkpt lat="46.62958656" lon="6.51190946"><ele>571.1604003744</ele><time>2008-01-05T12:12:29Z</time></trkpt>
<trkpt lat="46.63051285" lon="6.51202823"><ele>566.8344727296</ele><time>2008-01-05T12:12:39Z</time></trkpt>
<trkpt lat="46.63146822" lon="6.51202622"><ele>563.9504395848</ele><time>2008-01-05T12:12:48Z</time></trkpt>
<trkpt lat="46.63247807" lon="6.51205547"><ele>558.6633300168</ele><time>2008-01-05T12:12:57Z</time></trkpt>
<trkpt lat="46.63344643" lon="6.51212487"><ele>554.337402372</ele><time>2008-01-05T12:13:05Z</time></trkpt>
<trkpt lat="46.63444505" lon="6.51224817"><ele>551.4533692272</ele><time>2008-01-05T12:13:13Z</time></trkpt>
<trkpt lat="46.63542347" lon="6.51245529"><ele>548.5693360824</ele><time>2008-01-05T12:13:21Z</time></trkpt>
<trkpt lat="46.63638202" lon="6.51265327"><ele>545.204833896</ele><time>2008-01-05T12:13:29Z</time></trkpt>
<trkpt lat="46.63732423" lon="6.51293775"><ele>543.762817476</ele><time>2008-01-05T12:13:37Z</time></trkpt>
<trkpt lat="46.63822864" lon="6.51350135"><ele>541.3594972128</ele><time>2008-01-05T12:13:45Z</time></trkpt>
<trkpt lat="46.63916063" lon="6.51409144"><ele>533.6689454616</ele><time>2008-01-05T12:13:53Z</time></trkpt>
<trkpt lat="46.64003209" lon="6.51464808"><ele>527.4204101304</ele><time>2008-01-05T12:14:00Z</time></trkpt>
<trkpt lat="46.64097715" lon="6.51501604"><ele>525.0172117872</ele><time>2008-01-05T12:14:07Z</time></trkpt>
<trkpt lat="46.64198415" lon="6.51485587"><ele>518.2878416544</ele><time>2008-01-05T12:14:14Z</time></trkpt>
<trkpt lat="46.64289862" lon="6.51423074"><ele>514.4426268912</ele><time>2008-01-05T12:14:21Z</time></trkpt>
<trkpt lat="46.64380353" lon="6.51368818"><ele>508.1940918648</ele><time>2008-01-05T12:14:28Z</time></trkpt>
<trkpt lat="46.64456167" lon="6.51278403"><ele>499.0615233888</ele><time>2008-01-05T12:14:35Z</time></trkpt>
<trkpt lat="46.64538142" lon="6.51213032"><ele>497.1389160072</ele><time>2008-01-05T12:14:42Z</time></trkpt>
<trkpt lat="46.64620344" lon="6.51137779"><ele>490.8903809808</ele><time>2008-01-05T12:14:50Z</time></trkpt>
<trkpt lat="46.64712260" lon="6.51102793"><ele>482.2385253864</ele><time>2008-01-05T12:14:57Z</time></trkpt>
<trkpt lat="46.64809959" lon="6.51096440"><ele>477.9124755168</ele><time>2008-01-05T12:15:04Z</time></trkpt>
<trkpt lat="46.64906267" lon="6.51072124"><ele>467.8187257272</ele><time>2008-01-05T12:15:11Z</time></trkpt>
<trkpt lat="46.65000237" lon="6.51046853"><ele>464.9348145024</ele><time>2008-01-05T12:15:18Z</time></trkpt>
<trkpt lat="46.65093033" lon="6.51002286"><ele>464.4541016208</ele><time>2008-01-05T12:15:26Z</time></trkpt>
<trkpt lat="46.65173315" lon="6.50929288"><ele>464.9348145024</ele><time>2008-01-05T12:15:35Z</time></trkpt>
<trkpt lat="46.65252725" lon="6.50857019"><ele>465.415527384</ele><time>2008-01-05T12:15:45Z</time></trkpt>
<trkpt lat="46.65346158" lon="6.50838512"><ele>466.857421884</ele><time>2008-01-05T12:15:58Z</time></trkpt>
<trkpt lat="46.65438015" lon="6.50847808"><ele>467.3381347656</ele><time>2008-01-05T12:16:14Z</time></trkpt>
<trkpt lat="46.65517584" lon="6.50901988"><ele>474.0672607536</ele><time>2008-01-05T12:16:36Z</time></trkpt>
<trkpt lat="46.65585662" lon="6.50993896"><ele>478.3931883984</ele><time>2008-01-05T12:17:00Z</time></trkpt>
<trkpt lat="46.65648317" lon="6.51091989"><ele>481.7578125048</ele><time>2008-01-05T12:17:24Z</time></trkpt>
<trkpt lat="46.65721357" lon="6.51171424"><ele>488.9677732944</ele><time>2008-01-05T12:17:53Z</time></trkpt>
<trkpt lat="46.65799736" lon="6.51249996"><ele>495.6968992824</ele><time>2008-01-05T12:18:25Z</time></trkpt>
<trkpt lat="46.65874687" lon="6.51344284"><ele>500.5035401136</ele><time>2008-01-05T12:18:56Z</time></trkpt>
<trkpt lat="46.65940518" lon="6.51440157"><ele>498.580932732</ele><time>2008-01-05T12:19:14Z</time></trkpt>
<trkpt lat="46.65995076" lon="6.51554276"><ele>498.580932732</ele><time>2008-01-05T12:19:30Z</time></trkpt>
<trkpt lat="46.66068804" lon="6.51500196"><ele>498.580932732</ele><time>2008-01-05T12:19:46Z</time></trkpt>
<trkpt lat="46.66150150" lon="6.51429906"><ele>492.8129883624</ele><time>2008-01-05T12:20:00Z</time></trkpt>
<trkpt lat="46.66231253" lon="6.51507639"><ele>488.9677732944</ele><time>2008-01-05T12:20:11Z</time></trkpt>
<trkpt lat="46.66307294" lon="6.51538895"><ele>488.006469756</ele><time>2008-01-05T12:20:30Z</time></trkpt>
<trkpt lat="46.66332213" lon="6.51503013"><ele>484.161132768</ele><time>2008-01-05T12:21:37Z</time></trkpt>
<trkpt lat="46.66403376" lon="6.51707196"><ele>484.161132768</ele><time>2008-01-05T12:34:50Z</time></trkpt>
<trkpt lat="46.66433190" lon="6.51858162"><ele>483.1998292296</ele><time>2008-01-05T12:35:11Z</time></trkpt>
<trkpt lat="46.66457187" lon="6.51984268"><ele>482.2385253864</ele><time>2008-01-05T12:35:26Z</time></trkpt>
<trkpt lat="46.66481193" lon="6.52112394"><ele>480.3159180048</ele><time>2008-01-05T12:35:41Z</time></trkpt>
<trkpt lat="46.66516447" lon="6.52236463"><ele>479.3544922416</ele><time>2008-01-05T12:35:56Z</time></trkpt>
<trkpt lat="46.66550972" lon="6.52360565"><ele>477.9124755168</ele><time>2008-01-05T12:36:11Z</time></trkpt>
<trkpt lat="46.66595346" lon="6.52475590"><ele>475.9898681352</ele><time>2008-01-05T12:36:25Z</time></trkpt>
<trkpt lat="46.66668395" lon="6.52564153"><ele>472.144653372</ele><time>2008-01-05T12:36:38Z</time></trkpt>
<trkpt lat="46.66751459" lon="6.52614889"><ele>470.7026366472</ele><time>2008-01-05T12:36:51Z</time></trkpt>
<trkpt lat="46.66835144" lon="6.52664702"><ele>469.7413331088</ele><time>2008-01-05T12:37:04Z</time></trkpt>
<trkpt lat="46.66918636" lon="6.52720459"><ele>469.2607421472</ele><time>2008-01-05T12:37:17Z</time></trkpt>
<trkpt lat="46.66919366" lon="6.52715606"><ele>469.2607421472</ele><time>2008-01-05T12:37:49Z</time></trkpt>
<trkpt lat="46.66834834" lon="6.52656103"><ele>469.2607421472</ele><time>2008-01-05T12:38:11Z</time></trkpt>
<trkpt lat="46.66747612" lon="6.52604579"><ele>471.6639404904</ele><time>2008-01-05T12:38:33Z</time></trkpt>
<trkpt lat="46.66663785" lon="6.52549577"><ele>471.6639404904</ele><time>2008-01-05T12:38:54Z</time></trkpt>
<trkpt lat="46.66591943" lon="6.52459924"><ele>474.0672607536</ele><time>2008-01-05T12:39:16Z</time></trkpt>
<trkpt lat="46.66547284" lon="6.52337967"><ele>476.4705810168</ele><time>2008-01-05T12:39:39Z</time></trkpt>
<trkpt lat="46.66508175" lon="6.52215466"><ele>478.3931883984</ele><time>2008-01-05T12:40:01Z</time></trkpt>
<trkpt lat="46.66475678" lon="6.52091238"><ele>481.2772215432</ele><time>2008-01-05T12:40:22Z</time></trkpt>
<trkpt lat="46.66452292" lon="6.51963162"><ele>482.719238268</ele><time>2008-01-05T12:40:43Z</time></trkpt>
<trkpt lat="46.66428857" lon="6.51836017"><ele>484.6418456496</ele><time>2008-01-05T12:41:04Z</time></trkpt>
<trkpt lat="46.66402387" lon="6.51705218"><ele>485.603027268</ele><time>2008-01-05T12:41:26Z</time></trkpt>
<trkpt lat="46.66374668" lon="6.51575239"><ele>486.5644530312</ele><time>2008-01-05T12:41:50Z</time></trkpt>
<trkpt lat="46.66333387" lon="6.51512249"><ele>491.3709716376</ele><time>2008-01-05T12:48:11Z</time></trkpt>
<trkpt lat="46.66333320" lon="6.51505108"><ele>490.8903809808</ele><time>2008-01-05T12:49:08Z</time></trkpt>
<trkpt lat="46.66330889" lon="6.51500314"><ele>490.8903809808</ele><time>2008-01-05T12:58:52Z</time></trkpt>
<trkpt lat="46.66325633" lon="6.51447977"><ele>492.3323974008</ele><time>2008-01-05T13:00:19Z</time></trkpt>
<trkpt lat="46.66297839" lon="6.51311796"><ele>503.8681639152</ele><time>2008-01-05T13:01:10Z</time></trkpt>
<trkpt lat="46.66310353" lon="6.51183528"><ele>511.0780027848</ele><time>2008-01-05T13:01:57Z</time></trkpt>
<trkpt lat="46.66289474" lon="6.51076550"><ele>520.6912841424</ele><time>2008-01-05T13:02:50Z</time></trkpt>
<trkpt lat="46.66198254" lon="6.51052234"><ele>531.2657471184</ele><time>2008-01-05T13:03:41Z</time></trkpt>
<trkpt lat="46.66149898" lon="6.50939983"><ele>531.7463377752</ele><time>2008-01-05T13:04:24Z</time></trkpt>
<trkpt lat="46.66182638" lon="6.50839099"><ele>538.9562988696</ele><time>2008-01-05T13:04:54Z</time></trkpt>
<trkpt lat="46.66226610" lon="6.50732397"><ele>541.3594972128</ele><time>2008-01-05T13:05:25Z</time></trkpt>
<trkpt lat="46.66271386" lon="6.50612687"><ele>546.6468506208</ele><time>2008-01-05T13:05:54Z</time></trkpt>
<trkpt lat="46.66361818" lon="6.50562597"><ele>542.320922976</ele><time>2008-01-05T13:06:24Z</time></trkpt>
<trkpt lat="46.66419050" lon="6.50498768"><ele>550.9726563456</ele><time>2008-01-05T13:07:06Z</time></trkpt>
<trkpt lat="46.66451203" lon="6.50397783"><ele>555.2985839904</ele><time>2008-01-05T13:07:49Z</time></trkpt>
<trkpt lat="46.66472493" lon="6.50268098"><ele>559.62475578</ele><time>2008-01-05T13:08:30Z</time></trkpt>
<trkpt lat="46.66511930" lon="6.50154532"><ele>565.8732911112</ele><time>2008-01-05T13:09:16Z</time></trkpt>
<trkpt lat="46.66549112" lon="6.50022542"><ele>573.5639647824</ele><time>2008-01-05T13:10:11Z</time></trkpt>
<trkpt lat="46.66563705" lon="6.49878298"><ele>583.657470732</ele><time>2008-01-05T13:11:20Z</time></trkpt>
<trkpt lat="46.66575867" lon="6.49734213"><ele>589.4255370216</ele><time>2008-01-05T13:12:49Z</time></trkpt>
<trkpt lat="46.66596587" lon="6.49602089"><ele>593.2707520896</ele><time>2008-01-05T13:13:39Z</time></trkpt>
<trkpt lat="46.66628513" lon="6.49471952"><ele>600.961181616</ele><time>2008-01-05T13:14:37Z</time></trkpt>
<trkpt lat="46.66653869" lon="6.49341856"><ele>605.2873534056</ele><time>2008-01-05T13:15:31Z</time></trkpt>
<trkpt lat="46.66676894" lon="6.49207368"><ele>614.9003906184</ele><time>2008-01-05T13:16:31Z</time></trkpt>
<trkpt lat="46.66721284" lon="6.49073107"><ele>622.1103517128</ele><time>2008-01-05T13:19:14Z</time></trkpt>
<trkpt lat="46.66764275" lon="6.48949575"><ele>624.513671976</ele><time>2008-01-05T13:19:55Z</time></trkpt>
<trkpt lat="46.66756949" lon="6.48808775"><ele>626.9169922392</ele><time>2008-01-05T13:20:27Z</time></trkpt>
<trkpt lat="46.66794534" lon="6.48696257"><ele>626.9169922392</ele><time>2008-01-05T13:20:57Z</time></trkpt>
<trkpt lat="46.66790167" lon="6.48548928"><ele>627.8781738576</ele><time>2008-01-05T13:21:28Z</time></trkpt>
<trkpt lat="46.66737160" lon="6.48431003"><ele>626.9169922392</ele><time>2008-01-05T13:21:54Z</time></trkpt>
<trkpt lat="46.66684840" lon="6.48308242"><ele>625.955566476</ele><time>2008-01-05T13:22:16Z</time></trkpt>
<trkpt lat="46.66630257" lon="6.48206980"><ele>628.8395996208</ele><time>2008-01-05T13:22:41Z</time></trkpt>
<trkpt lat="46.66576562" lon="6.48085526"><ele>626.4362793576</ele><time>2008-01-05T13:23:05Z</time></trkpt>
<trkpt lat="46.66511184" lon="6.47987223"><ele>621.6296385264</ele><time>2008-01-05T13:23:25Z</time></trkpt>
<trkpt lat="46.66561316" lon="6.47899532"><ele>622.5910645944</ele><time>2008-01-05T13:23:49Z</time></trkpt>
<trkpt lat="46.66644590" lon="6.47864009"><ele>625.4748535944</ele><time>2008-01-05T13:24:09Z</time></trkpt>
<trkpt lat="46.66738559" lon="6.47857639"><ele>631.7233886208</ele><time>2008-01-05T13:24:39Z</time></trkpt>
<trkpt lat="46.66824734" lon="6.47871553"><ele>631.242919884</ele><time>2008-01-05T13:25:07Z</time></trkpt>
<trkpt lat="46.66911084" lon="6.47922766"><ele>633.1652831208</ele><time>2008-01-05T13:25:39Z</time></trkpt>
<trkpt lat="46.66999178" lon="6.47979814"><ele>631.242919884</ele><time>2008-01-05T13:26:00Z</time></trkpt>
<trkpt lat="46.67090767" lon="6.47973066"><ele>632.2041015024</ele><time>2008-01-05T13:26:19Z</time></trkpt>
<trkpt lat="46.67183027" lon="6.47956847"><ele>631.7233886208</ele><time>2008-01-05T13:26:41Z</time></trkpt>
<trkpt lat="46.67272110" lon="6.47900923"><ele>635.568603384</ele><time>2008-01-05T13:26:59Z</time></trkpt>
<trkpt lat="46.67364654" lon="6.47867873"><ele>637.0107423336</ele><time>2008-01-05T13:27:26Z</time></trkpt>
<trkpt lat="46.67459110" lon="6.47840163"><ele>641.3366699784</ele><time>2008-01-05T13:28:14Z</time></trkpt>
<trkpt lat="46.67553725" lon="6.47771322"><ele>644.2207031232</ele><time>2008-01-05T13:29:03Z</time></trkpt>
<trkpt lat="46.67602465" lon="6.47622988"><ele>655.7565918624</ele><time>2008-01-05T13:30:17Z</time></trkpt>
<trkpt lat="46.67674952" lon="6.47501442"><ele>673.541015628</ele><time>2008-01-05T13:31:39Z</time></trkpt>
<trkpt lat="46.67752719" lon="6.47412049"><ele>691.8059081304</ele><time>2008-01-05T13:36:01Z</time></trkpt>
<trkpt lat="46.67832356" lon="6.47299807"><ele>708.6289061328</ele><time>2008-01-05T13:37:24Z</time></trkpt>
<trkpt lat="46.67922026" lon="6.47199467"><ele>720.6455077536</ele><time>2008-01-05T13:38:43Z</time></trkpt>
<trkpt lat="46.68018317" lon="6.47178378"><ele>727.8552247032</ele><time>2008-01-05T13:39:47Z</time></trkpt>
<trkpt lat="46.68105899" lon="6.47133334"><ele>727.8552247032</ele><time>2008-01-05T13:40:41Z</time></trkpt>
<trkpt lat="46.68197078" lon="6.47081944"><ele>728.8166504664</ele><time>2008-01-05T13:41:22Z</time></trkpt>
<trkpt lat="46.68281626" lon="6.47016725"><ele>730.2585449664</ele><time>2008-01-05T13:41:53Z</time></trkpt>
<trkpt lat="46.68368932" lon="6.46986424"><ele>733.6232909928</ele><time>2008-01-05T13:42:21Z</time></trkpt>
<trkpt lat="46.68453447" lon="6.46927658"><ele>735.0654296376</ele><time>2008-01-05T13:42:51Z</time></trkpt>
<trkpt lat="46.68536277" lon="6.46872086"><ele>733.6232909928</ele><time>2008-01-05T13:43:13Z</time></trkpt>
<trkpt lat="46.68587842" lon="6.46757489"><ele>737.468505756</ele><time>2008-01-05T13:43:35Z</time></trkpt>
<trkpt lat="46.68600708" lon="6.46625617"><ele>737.468505756</ele><time>2008-01-05T13:43:57Z</time></trkpt>
<trkpt lat="46.68642023" lon="6.46514079"><ele>736.026611256</ele><time>2008-01-05T13:44:12Z</time></trkpt>
<trkpt lat="46.68715817" lon="6.46424543"><ele>742.2751465872</ele><time>2008-01-05T13:44:31Z</time></trkpt>
<trkpt lat="46.68797549" lon="6.46355434"><ele>741.7944337056</ele><time>2008-01-05T13:44:58Z</time></trkpt>
<trkpt lat="46.68893329" lon="6.46363079"><ele>736.5073241376</ele><time>2008-01-05T13:45:11Z</time></trkpt>
<trkpt lat="46.68987860" lon="6.46369583"><ele>734.1040038744</ele><time>2008-01-05T13:45:23Z</time></trkpt>
<trkpt lat="46.69074713" lon="6.46329920"><ele>724.0100096352</ele><time>2008-01-05T13:45:48Z</time></trkpt>
<trkpt lat="46.69107218" lon="6.46156423"><ele>698.0544434616</ele><time>2008-01-05T13:47:31Z</time></trkpt>
<trkpt lat="46.69160242" lon="6.46122007"><ele>686.999267604</ele><time>2008-01-05T13:48:08Z</time></trkpt>
<trkpt lat="46.69234229" lon="6.46108369"><ele>681.2314454592</ele><time>2008-01-05T13:48:30Z</time></trkpt>
<trkpt lat="46.69300254" lon="6.46017669"><ele>673.541015628</ele><time>2008-01-05T13:48:45Z</time></trkpt>
<trkpt lat="46.69385682" lon="6.46086107"><ele>676.424804628</ele><time>2008-01-05T13:49:03Z</time></trkpt>
<trkpt lat="46.69386009" lon="6.46211400"><ele>683.6345215776</ele><time>2008-01-05T13:49:29Z</time></trkpt>
<trkpt lat="46.69361835" lon="6.46343725"><ele>686.5187988672</ele><time>2008-01-05T13:49:58Z</time></trkpt>
<trkpt lat="46.69344510" lon="6.46479302"><ele>688.9221191304</ele><time>2008-01-05T13:50:33Z</time></trkpt>
<trkpt lat="46.69353663" lon="6.46614410"><ele>697.57373058</ele><time>2008-01-05T13:51:42Z</time></trkpt>
<trkpt lat="46.69377878" lon="6.46757539"><ele>706.7062987512</ele><time>2008-01-05T13:53:25Z</time></trkpt>
<trkpt lat="46.69399193" lon="6.46898657"><ele>712.4741212008</ele><time>2008-01-05T13:54:25Z</time></trkpt>
<trkpt lat="46.69457154" lon="6.46995259"><ele>723.0488280168</ele><time>2008-01-05T13:55:28Z</time></trkpt>
<trkpt lat="46.69571274" lon="6.47010338"><ele>729.2971192032</ele><time>2008-01-05T13:57:52Z</time></trkpt>
<trkpt lat="46.69692292" lon="6.47031032"><ele>729.7778320848</ele><time>2008-01-05T13:58:33Z</time></trkpt>
<trkpt lat="46.69796278" lon="6.47091047"><ele>723.5295408984</ele><time>2008-01-05T13:58:57Z</time></trkpt>
<trkpt lat="46.69900163" lon="6.47086320"><ele>722.0874022536</ele><time>2008-01-05T13:59:17Z</time></trkpt>
<trkpt lat="46.70012330" lon="6.47107702"><ele>721.1262206352</ele><time>2008-01-05T13:59:42Z</time></trkpt>
<trkpt lat="46.70134353" lon="6.47139025"><ele>717.281005872</ele><time>2008-01-05T14:00:06Z</time></trkpt>
<trkpt lat="46.70242069" lon="6.47115547"><ele>719.2036132536</ele><time>2008-01-05T14:00:25Z</time></trkpt>
<trkpt lat="46.70342342" lon="6.47094349"><ele>722.5681151352</ele><time>2008-01-05T14:00:51Z</time></trkpt>
<trkpt lat="46.70430570" lon="6.47060554"><ele>720.164794872</ele><time>2008-01-05T14:01:18Z</time></trkpt>
<trkpt lat="46.70519636" lon="6.47055357"><ele>718.2421874904</ele><time>2008-01-05T14:01:34Z</time></trkpt>
<trkpt lat="46.70612885" lon="6.47063538"><ele>715.8388672272</ele><time>2008-01-05T14:01:49Z</time></trkpt>
<trkpt lat="46.70708019" lon="6.47046288"><ele>714.877441464</ele><time>2008-01-05T14:02:04Z</time></trkpt>
<trkpt lat="46.70802282" lon="6.47052096"><ele>711.993652464</ele><time>2008-01-05T14:02:18Z</time></trkpt>
<trkpt lat="46.70893888" lon="6.47028719"><ele>712.9548340824</ele><time>2008-01-05T14:02:33Z</time></trkpt>
<trkpt lat="46.70975679" lon="6.47092606"><ele>715.3581543456</ele><time>2008-01-05T14:02:52Z</time></trkpt>
<trkpt lat="46.71056028" lon="6.47157038"><ele>711.5129395824</ele><time>2008-01-05T14:03:09Z</time></trkpt>
<trkpt lat="46.71124969" lon="6.47252717"><ele>702.861083988</ele><time>2008-01-05T14:03:22Z</time></trkpt>
<trkpt lat="46.71164489" lon="6.47360835"><ele>691.3251952488</ele><time>2008-01-05T14:03:34Z</time></trkpt>
<trkpt lat="46.71225627" lon="6.47462063"><ele>690.3640136304</ele><time>2008-01-05T14:03:48Z</time></trkpt>
<trkpt lat="46.71305054" lon="6.47528213"><ele>689.8833007488</ele><time>2008-01-05T14:04:01Z</time></trkpt>
<trkpt lat="46.71328062" lon="6.47661796"><ele>689.8833007488</ele><time>2008-01-05T14:04:16Z</time></trkpt>
<trkpt lat="46.71277293" lon="6.47779117"><ele>689.4025878672</ele><time>2008-01-05T14:04:27Z</time></trkpt>
<trkpt lat="46.71188327" lon="6.47772806"><ele>688.4414062488</ele><time>2008-01-05T14:04:36Z</time></trkpt>
<trkpt lat="46.71114575" lon="6.47682566"><ele>686.999267604</ele><time>2008-01-05T14:04:45Z</time></trkpt>
<trkpt lat="46.71092070" lon="6.47734794"><ele>686.0380859856</ele><time>2008-01-05T14:04:57Z</time></trkpt>
<trkpt lat="46.71143962" lon="6.47853926"><ele>685.557373104</ele><time>2008-01-05T14:05:06Z</time></trkpt>
<trkpt lat="46.71198838" lon="6.47966478"><ele>684.5961914856</ele><time>2008-01-05T14:05:14Z</time></trkpt>
<trkpt lat="46.71234252" lon="6.48102097"><ele>684.115478604</ele><time>2008-01-05T14:05:22Z</time></trkpt>
<trkpt lat="46.71265475" lon="6.48227784"><ele>683.153808696</ele><time>2008-01-05T14:05:31Z</time></trkpt>
<trkpt lat="46.71330392" lon="6.48321552"><ele>682.6733399592</ele><time>2008-01-05T14:05:48Z</time></trkpt>
<trkpt lat="46.71422166" lon="6.48364082"><ele>681.2314454592</ele><time>2008-01-05T14:06:22Z</time></trkpt>
<trkpt lat="46.71522858" lon="6.48379354"><ele>680.2700193912</ele><time>2008-01-05T14:06:41Z</time></trkpt>
<trkpt lat="46.71623734" lon="6.48396034"><ele>679.7893065096</ele><time>2008-01-05T14:06:59Z</time></trkpt>
<trkpt lat="46.71710378" lon="6.48470080"><ele>664.8889158888</ele><time>2008-01-05T14:11:46Z</time></trkpt>
<trkpt lat="46.71815344" lon="6.48505284"><ele>664.4082030072</ele><time>2008-01-05T14:12:44Z</time></trkpt>
<trkpt lat="46.71926337" lon="6.48540094"><ele>665.850341652</ele><time>2008-01-05T14:13:19Z</time></trkpt>
<trkpt lat="46.72024473" lon="6.48605816"><ele>666.8115235752</ele><time>2008-01-05T14:13:54Z</time></trkpt>
<trkpt lat="46.72057875" lon="6.48745618"><ele>666.8115235752</ele><time>2008-01-05T14:14:29Z</time></trkpt>
<trkpt lat="46.72105283" lon="6.48863643"><ele>667.2922364568</ele><time>2008-01-05T14:15:02Z</time></trkpt>
<trkpt lat="46.72116154" lon="6.49005247"><ele>667.7727051936</ele><time>2008-01-05T14:15:27Z</time></trkpt>
<trkpt lat="46.72135483" lon="6.49138344"><ele>667.7727051936</ele><time>2008-01-05T14:15:51Z</time></trkpt>
<trkpt lat="46.72151023" lon="6.49273896"><ele>668.25366222</ele><time>2008-01-05T14:16:10Z</time></trkpt>
<trkpt lat="46.72183796" lon="6.49410387"><ele>668.7343751016</ele><time>2008-01-05T14:16:23Z</time></trkpt>
<trkpt lat="46.72209998" lon="6.49549258"><ele>667.7727051936</ele><time>2008-01-05T14:16:59Z</time></trkpt>
<trkpt lat="46.72171013" lon="6.49673134"><ele>667.2922364568</ele><time>2008-01-05T14:17:18Z</time></trkpt>
<trkpt lat="46.72135793" lon="6.49795912"><ele>666.3308106936</ele><time>2008-01-05T14:17:33Z</time></trkpt>
<trkpt lat="46.72084202" lon="6.49916972"><ele>664.8889158888</ele><time>2008-01-05T14:17:54Z</time></trkpt>
<trkpt lat="46.72084923" lon="6.50054930"><ele>662.9663085072</ele><time>2008-01-05T14:18:14Z</time></trkpt>
<trkpt lat="46.72129724" lon="6.50178965"><ele>659.6018066256</ele><time>2008-01-05T14:18:34Z</time></trkpt>
<trkpt lat="46.72164216" lon="6.50313646"><ele>658.1599121256</ele><time>2008-01-05T14:18:53Z</time></trkpt>
<trkpt lat="46.72191717" lon="6.50471862"><ele>656.2370605992</ele><time>2008-01-05T14:19:15Z</time></trkpt>
<trkpt lat="46.72222772" lon="6.50567902"><ele>652.8725587176</ele><time>2008-01-05T14:19:41Z</time></trkpt>
<trkpt lat="46.72312592" lon="6.50609753"><ele>639.4140625968</ele><time>2008-01-05T14:22:18Z</time></trkpt>
<trkpt lat="46.72337595" lon="6.50743319"><ele>637.4914552152</ele><time>2008-01-05T14:22:40Z</time></trkpt>
<trkpt lat="46.72381592" lon="6.50860699"><ele>635.568603384</ele><time>2008-01-05T14:23:00Z</time></trkpt>
<trkpt lat="46.72446895" lon="6.50956035"><ele>634.6074217656</ele><time>2008-01-05T14:23:16Z</time></trkpt>
<trkpt lat="46.72485519" lon="6.51068838"><ele>632.684814384</ele><time>2008-01-05T14:23:32Z</time></trkpt>
<trkpt lat="46.72449888" lon="6.51187727"><ele>630.7622070024</ele><time>2008-01-05T14:23:55Z</time></trkpt>
<trkpt lat="46.72429352" lon="6.51262628"><ele>626.9169922392</ele><time>2008-01-05T14:24:23Z</time></trkpt>
<trkpt lat="46.72517563" lon="6.51335333"><ele>623.5524903576</ele><time>2008-01-05T14:24:49Z</time></trkpt>
<trkpt lat="46.72581375" lon="6.51407409"><ele>619.2263182632</ele><time>2008-01-05T14:25:24Z</time></trkpt>
<trkpt lat="46.72562616" lon="6.51530254"><ele>619.2263182632</ele><time>2008-01-05T14:26:21Z</time></trkpt>
<trkpt lat="46.72552709" lon="6.51639076"><ele>617.3037108816</ele><time>2008-01-05T14:27:17Z</time></trkpt>
<trkpt lat="46.72554066" lon="6.51672679"><ele>615.3811035</ele><time>2008-01-05T14:28:03Z</time></trkpt>
<trkpt lat="46.72621029" lon="6.51782046"><ele>612.4970703552</ele><time>2008-01-05T14:28:39Z</time></trkpt>
<trkpt lat="46.72640610" lon="6.51925653"><ele>609.1325684736</ele><time>2008-01-05T14:29:08Z</time></trkpt>
<trkpt lat="46.72708159" lon="6.52030712"><ele>606.248535024</ele><time>2008-01-05T14:29:43Z</time></trkpt>
<trkpt lat="46.72737203" lon="6.52181335"><ele>593.7514649712</ele><time>2008-01-05T14:31:57Z</time></trkpt>
<trkpt lat="46.72772314" lon="6.52201233"><ele>587.0219726136</ele><time>2008-01-05T14:32:49Z</time></trkpt>
<trkpt lat="46.72762214" lon="6.52331614"><ele>579.8122559688</ele><time>2008-01-05T14:33:59Z</time></trkpt>
<trkpt lat="46.72754302" lon="6.52469723"><ele>579.3315430872</ele><time>2008-01-05T14:34:20Z</time></trkpt>
<trkpt lat="46.72763916" lon="6.52601645"><ele>577.8896485872</ele><time>2008-01-05T14:34:41Z</time></trkpt>
<trkpt lat="46.72807175" lon="6.52725052"><ele>576.928466664</ele><time>2008-01-05T14:34:55Z</time></trkpt>
<trkpt lat="46.72843284" lon="6.52832173"><ele>575.0058592824</ele><time>2008-01-05T14:35:12Z</time></trkpt>
<trkpt lat="46.72772449" lon="6.52927995"><ele>573.5639647824</ele><time>2008-01-05T14:35:27Z</time></trkpt>
<trkpt lat="46.72707774" lon="6.53016348"><ele>571.6408691112</ele><time>2008-01-05T14:35:42Z</time></trkpt>
<trkpt lat="46.72642068" lon="6.52983173"><ele>569.7185058744</ele><time>2008-01-05T14:36:04Z</time></trkpt>
<trkpt lat="46.72553547" lon="6.52942319"><ele>567.795654348</ele><time>2008-01-05T14:36:21Z</time></trkpt>
<trkpt lat="46.72468496" lon="6.52880813"><ele>566.353759848</ele><time>2008-01-05T14:36:39Z</time></trkpt>
<trkpt lat="46.72376395" lon="6.52897795"><ele>562.50854478</ele><time>2008-01-05T14:37:12Z</time></trkpt>
<trkpt lat="46.72299617" lon="6.52968303"><ele>559.1440428984</ele><time>2008-01-05T14:37:51Z</time></trkpt>
<trkpt lat="46.72225655" lon="6.53052307"><ele>555.779296872</ele><time>2008-01-05T14:38:22Z</time></trkpt>
<trkpt lat="46.72138005" lon="6.53081736"><ele>552.4145508456</ele><time>2008-01-05T14:38:56Z</time></trkpt>
<trkpt lat="46.72068939" lon="6.53169880"><ele>550.9726563456</ele><time>2008-01-05T14:39:21Z</time></trkpt>
<trkpt lat="46.72056215" lon="6.53318868"><ele>549.5307618456</ele><time>2008-01-05T14:39:54Z</time></trkpt>
<trkpt lat="46.72075569" lon="6.53468426"><ele>547.6081541592</ele><time>2008-01-05T14:40:15Z</time></trkpt>
<trkpt lat="46.72112432" lon="6.53601154"><ele>546.6468506208</ele><time>2008-01-05T14:40:30Z</time></trkpt>
<trkpt lat="46.72140805" lon="6.53734795"><ele>545.204833896</ele><time>2008-01-05T14:40:45Z</time></trkpt>
<trkpt lat="46.72167200" lon="6.53866969"><ele>543.762817476</ele><time>2008-01-05T14:40:57Z</time></trkpt>
<trkpt lat="46.72135030" lon="6.53963973"><ele>542.320922976</ele><time>2008-01-05T14:41:15Z</time></trkpt>
<trkpt lat="46.72043365" lon="6.53940529"><ele>540.8789062512</ele><time>2008-01-05T14:41:31Z</time></trkpt>
<trkpt lat="46.71954702" lon="6.53906339"><ele>539.4368895264</ele><time>2008-01-05T14:41:52Z</time></trkpt>
<trkpt lat="46.71864546" lon="6.53897404"><ele>537.9949950264</ele><time>2008-01-05T14:42:10Z</time></trkpt>
<trkpt lat="46.71843482" lon="6.54033216"><ele>537.033691488</ele><time>2008-01-05T14:42:25Z</time></trkpt>
<trkpt lat="46.71824204" lon="6.54163538"><ele>536.5531005264</ele><time>2008-01-05T14:42:36Z</time></trkpt>
<trkpt lat="46.71804062" lon="6.54294899"><ele>535.5915528432</ele><time>2008-01-05T14:42:47Z</time></trkpt>
<trkpt lat="46.71782739" lon="6.54430342"><ele>534.6303712248</ele><time>2008-01-05T14:42:59Z</time></trkpt>
<trkpt lat="46.71760359" lon="6.54569532"><ele>534.1496583432</ele><time>2008-01-05T14:43:11Z</time></trkpt>
<trkpt lat="46.71739454" lon="6.54698194"><ele>533.6689454616</ele><time>2008-01-05T14:43:22Z</time></trkpt>
<trkpt lat="46.71720905" lon="6.54825146"><ele>533.1883545</ele><time>2008-01-05T14:43:34Z</time></trkpt>
<trkpt lat="46.71699313" lon="6.54954638"><ele>531.7463377752</ele><time>2008-01-05T14:43:48Z</time></trkpt>
<trkpt lat="46.71645183" lon="6.55045867"><ele>530.3044432752</ele><time>2008-01-05T14:44:10Z</time></trkpt>
<trkpt lat="46.71550769" lon="6.55030469"><ele>529.3431397368</ele><time>2008-01-05T14:44:30Z</time></trkpt>
<trkpt lat="46.71460203" lon="6.55030872"><ele>527.4204101304</ele><time>2008-01-05T14:44:48Z</time></trkpt>
<trkpt lat="46.71367876" lon="6.55037343"><ele>526.9398194736</ele><time>2008-01-05T14:45:07Z</time></trkpt>
<trkpt lat="46.71274552" lon="6.55058348"><ele>525.9783934056</ele><time>2008-01-05T14:45:27Z</time></trkpt>
<trkpt lat="46.71184447" lon="6.55093233"><ele>525.0172117872</ele><time>2008-01-05T14:45:46Z</time></trkpt>
<trkpt lat="46.71096495" lon="6.55141605"><ele>523.5751953672</ele><time>2008-01-05T14:46:03Z</time></trkpt>
<trkpt lat="46.71015266" lon="6.55197755"><ele>522.613891524</ele><time>2008-01-05T14:46:21Z</time></trkpt>
<trkpt lat="46.70937323" lon="6.55263595"><ele>522.1331786424</ele><time>2008-01-05T14:46:38Z</time></trkpt>
<trkpt lat="46.70860922" lon="6.55343533"><ele>521.171997024</ele><time>2008-01-05T14:46:55Z</time></trkpt>
<trkpt lat="46.70792174" lon="6.55432273"><ele>519.7298583792</ele><time>2008-01-05T14:47:11Z</time></trkpt>
<trkpt lat="46.70729142" lon="6.55528690"><ele>518.768554536</ele><time>2008-01-05T14:47:27Z</time></trkpt>
<trkpt lat="46.70666420" lon="6.55626724"><ele>518.768554536</ele><time>2008-01-05T14:47:44Z</time></trkpt>
<trkpt lat="46.70598962" lon="6.55716495"><ele>518.2878416544</ele><time>2008-01-05T14:48:01Z</time></trkpt>
<trkpt lat="46.70525696" lon="6.55798067"><ele>518.2878416544</ele><time>2008-01-05T14:48:18Z</time></trkpt>
<trkpt lat="46.70492378" lon="6.55902263"><ele>517.326660036</ele><time>2008-01-05T14:48:36Z</time></trkpt>
<trkpt lat="46.70433386" lon="6.56006676"><ele>517.326660036</ele><time>2008-01-05T14:48:52Z</time></trkpt>
<trkpt lat="46.70404192" lon="6.56131466"><ele>516.8459471544</ele><time>2008-01-05T14:49:07Z</time></trkpt>
<trkpt lat="46.70400169" lon="6.56268393"><ele>516.3652342728</ele><time>2008-01-05T14:49:22Z</time></trkpt>
<trkpt lat="46.70392969" lon="6.56405345"><ele>515.4040526544</ele><time>2008-01-05T14:49:37Z</time></trkpt>
<trkpt lat="46.70378217" lon="6.56535222"><ele>514.4426268912</ele><time>2008-01-05T14:49:54Z</time></trkpt>
<trkpt lat="46.70466646" lon="6.56579085"><ele>513.9620362344</ele><time>2008-01-05T14:50:12Z</time></trkpt>
<trkpt lat="46.70554027" lon="6.56614113"><ele>513.0007323912</ele><time>2008-01-05T14:50:27Z</time></trkpt>
<trkpt lat="46.70595174" lon="6.56702969"><ele>512.0394288528</ele><time>2008-01-05T14:50:43Z</time></trkpt>
<trkpt lat="46.70655624" lon="6.56725483"><ele>511.5587159712</ele><time>2008-01-05T14:51:03Z</time></trkpt>
<trkpt lat="46.70741413" lon="6.56756613"><ele>510.1166992464</ele><time>2008-01-05T14:51:21Z</time></trkpt>
<trkpt lat="46.70827847" lon="6.56792480"><ele>509.1553954032</ele><time>2008-01-05T14:51:49Z</time></trkpt>
<trkpt lat="46.70918539" lon="6.56832864"><ele>508.6746825216</ele><time>2008-01-05T14:52:07Z</time></trkpt>
<trkpt lat="46.71009625" lon="6.56869560"><ele>507.7135009032</ele><time>2008-01-05T14:52:25Z</time></trkpt>
<trkpt lat="46.71101105" lon="6.56894529"><ele>507.2327880216</ele><time>2008-01-05T14:52:42Z</time></trkpt>
<trkpt lat="46.71189560" lon="6.56920169"><ele>506.75207514</ele><time>2008-01-05T14:52:58Z</time></trkpt>
<trkpt lat="46.71224370" lon="6.57014617"><ele>505.7908935216</ele><time>2008-01-05T14:53:15Z</time></trkpt>
<trkpt lat="46.71195829" lon="6.57078403"><ele>500.5035401136</ele><time>2008-01-05T14:53:29Z</time></trkpt>
</trkseg></trk></gpx>